Time;durP1;ratioP1;P1;durP2;ratioP2;P2;SDS_P1;SDS_P2;PMS_P1;PMS_P2;Temp;Humidity;BMP_temperature;BMP_pressure;BME280_temperature;BME280_humidity;BME280_pressure;Samples;Min_cycle;Max_cycle;Signal;HPM_P1;HPM_P2
2019/06/30 00:00:02;;;;;;;8.5;7.45;;;;;;;14.95;61.5498;95324.47;;;;
2019/06/30 00:01:04;;;;;;;8.5;7.45;;;;;;;14.95;61.5498;95324.47;;;;
2019/06/30 00:02:05;;;;;;;8.5;7.45;;;;;;;14.95;61.5498;95324.47;;;;
2019/06/30 00:03:06;;;;;;;8.5;7.45;;;;;;;14.95;61.5498;95324.47;;;;
2019/06/30 00:04:07;;;;;;;8.5;7.45;;;;;;;14.95;61.5498;95324.47;;;;
2019/06/30 00:05:09;;;;;;;8.5;7.45;;;;;;;14.95;61.5498;95324.47;;;;
2019/06/30 00:06:10;;;;;;;8.5;7.45;;;;;;;14.95;61.5498;95324.47;;;;
2019/06/30 00:07:11;;;;;;;8.5;7.45;;;;;;;14.95;61.5498;95324.47;;;;
2019/06/30 00:08:12;;;;;;;8.5;7.45;;;;;;;14.95;61.5498;95324.47;;;;
2019/06/30 00:09:14;;;;;;;7.950001;7.150001;;;;;;;14.88;62.17871;95323.05;;;;
2019/06/30 00:10:15;;;;;;;7.950001;7.150001;;;;;;;14.88;62.17871;95323.05;;;;
2019/06/30 00:11:16;;;;;;;7.950001;7.150001;;;;;;;14.88;62.17871;95323.05;;;;
2019/06/30 00:12:17;;;;;;;7.950001;7.150001;;;;;;;14.88;62.17871;95323.05;;;;
2019/06/30 00:13:18;;;;;;;7.950001;7.150001;;;;;;;14.88;62.17871;95323.05;;;;
2019/06/30 00:14:19;;;;;;;7.950001;7.150001;;;;;;;14.88;62.17871;95323.05;;;;
2019/06/30 00:15:21;;;;;;;7.950001;7.150001;;;;;;;14.88;62.17871;95323.05;;;;
2019/06/30 00:16:22;;;;;;;7.950001;7.150001;;;;;;;14.88;62.17871;95323.05;;;;
2019/06/30 00:17:23;;;;;;;7.950001;7.150001;;;;;;;14.88;62.17871;95323.05;;;;
2019/06/30 00:18:24;;;;;;;7.950001;7.150001;;;;;;;14.88;62.17871;95323.05;;;;
2019/06/30 00:19:25;;;;;;;9.25;7.25;;;;;;;14.76;62.87695;95310.21;;;;
2019/06/30 00:20:26;;;;;;;9.25;7.25;;;;;;;14.76;62.87695;95310.21;;;;
2019/06/30 00:21:28;;;;;;;9.25;7.25;;;;;;;14.76;62.87695;95310.21;;;;
2019/06/30 00:22:29;;;;;;;9.25;7.25;;;;;;;14.76;62.87695;95310.21;;;;
2019/06/30 00:23:31;;;;;;;9.25;7.25;;;;;;;14.76;62.87695;95310.21;;;;
2019/06/30 00:24:32;;;;;;;9.25;7.25;;;;;;;14.76;62.87695;95310.21;;;;
2019/06/30 00:25:33;;;;;;;9.25;7.25;;;;;;;14.76;62.87695;95310.21;;;;
2019/06/30 00:26:34;;;;;;;9.25;7.25;;;;;;;14.76;62.87695;95310.21;;;;
2019/06/30 00:27:35;;;;;;;9.25;7.25;;;;;;;14.76;62.87695;95310.21;;;;
2019/06/30 00:28:36;;;;;;;9.25;7.25;;;;;;;14.76;62.87695;95310.21;;;;
2019/06/30 00:29:37;;;;;;;9.25;7.25;;;;;;;14.76;62.87695;95310.21;;;;
2019/06/30 00:30:38;;;;;;;8.499998;7.100001;;;;;;;14.73;63.39355;95303.38;;;;
2019/06/30 00:31:39;;;;;;;8.499998;7.100001;;;;;;;14.73;63.39355;95303.38;;;;
2019/06/30 00:32:40;;;;;;;8.499998;7.100001;;;;;;;14.73;63.39355;95303.38;;;;
2019/06/30 00:33:41;;;;;;;8.499998;7.100001;;;;;;;14.73;63.39355;95303.38;;;;
2019/06/30 00:34:42;;;;;;;8.499998;7.100001;;;;;;;14.73;63.39355;95303.38;;;;
2019/06/30 00:35:44;;;;;;;8.499998;7.100001;;;;;;;14.73;63.39355;95303.38;;;;
2019/06/30 00:36:45;;;;;;;8.499998;7.100001;;;;;;;14.73;63.39355;95303.38;;;;
2019/06/30 00:37:46;;;;;;;8.499998;7.100001;;;;;;;14.73;63.39355;95303.38;;;;
2019/06/30 00:38:47;;;;;;;8.499998;7.100001;;;;;;;14.73;63.39355;95303.38;;;;
2019/06/30 00:39:48;;;;;;;8.499998;7.100001;;;;;;;14.73;63.39355;95303.38;;;;
2019/06/30 00:40:49;;;;;;;8.25;6.55;;;;;;;14.67;63.77539;95298.17;;;;
2019/06/30 00:41:50;;;;;;;8.25;6.55;;;;;;;14.67;63.77539;95298.17;;;;
2019/06/30 00:42:51;;;;;;;8.25;6.55;;;;;;;14.67;63.77539;95298.17;;;;
2019/06/30 00:43:52;;;;;;;8.25;6.55;;;;;;;14.67;63.77539;95298.17;;;;
2019/06/30 00:44:53;;;;;;;8.25;6.55;;;;;;;14.67;63.77539;95298.17;;;;
2019/06/30 00:45:54;;;;;;;8.25;6.55;;;;;;;14.67;63.77539;95298.17;;;;
2019/06/30 00:46:56;;;;;;;8.25;6.55;;;;;;;14.67;63.77539;95298.17;;;;
2019/06/30 00:47:57;;;;;;;8.25;6.55;;;;;;;14.67;63.77539;95298.17;;;;
2019/06/30 00:48:58;;;;;;;8.25;6.55;;;;;;;14.67;63.77539;95298.17;;;;
2019/06/30 00:49:59;;;;;;;8.25;6.55;;;;;;;14.67;63.77539;95298.17;;;;
2019/06/30 00:51:00;;;;;;;8.25;6.55;;;;;;;14.67;63.77539;95298.17;;;;
2019/06/30 00:52:01;;;;;;;8.049999;6.450001;;;;;;;14.68;64.19824;95291.67;;;;
2019/06/30 00:53:03;;;;;;;8.049999;6.450001;;;;;;;14.68;64.19824;95291.67;;;;
2019/06/30 00:54:04;;;;;;;8.049999;6.450001;;;;;;;14.68;64.19824;95291.67;;;;
2019/06/30 00:55:05;;;;;;;8.049999;6.450001;;;;;;;14.68;64.19824;95291.67;;;;
2019/06/30 00:56:09;;;;;;;8.049999;6.450001;;;;;;;14.68;64.19824;95291.67;;;;
2019/06/30 00:57:10;;;;;;;8.049999;6.450001;;;;;;;14.68;64.19824;95291.67;;;;
2019/06/30 00:58:11;;;;;;;8.049999;6.450001;;;;;;;14.68;64.19824;95291.67;;;;
2019/06/30 00:59:12;;;;;;;8.049999;6.450001;;;;;;;14.68;64.19824;95291.67;;;;
2019/06/30 01:00:13;;;;;;;8.049999;6.450001;;;;;;;14.68;64.19824;95291.67;;;;
2019/06/30 01:01:15;;;;;;;8.049999;6.450001;;;;;;;14.68;64.19824;95291.67;;;;
2019/06/30 01:02:16;;;;;;;8;7.2;;;;;;;14.61;64.55664;95291.88;;;;
2019/06/30 01:03:17;;;;;;;8;7.2;;;;;;;14.61;64.55664;95291.88;;;;
2019/06/30 01:04:19;;;;;;;8;7.2;;;;;;;14.61;64.55664;95291.88;;;;
2019/06/30 01:05:20;;;;;;;8;7.2;;;;;;;14.61;64.55664;95291.88;;;;
2019/06/30 01:06:21;;;;;;;8;7.2;;;;;;;14.61;64.55664;95291.88;;;;
2019/06/30 01:07:22;;;;;;;8;7.2;;;;;;;14.61;64.55664;95291.88;;;;
2019/06/30 01:08:23;;;;;;;8;7.2;;;;;;;14.61;64.55664;95291.88;;;;
2019/06/30 01:09:25;;;;;;;8;7.2;;;;;;;14.61;64.55664;95291.88;;;;
2019/06/30 01:10:26;;;;;;;8;7.2;;;;;;;14.61;64.55664;95291.88;;;;
2019/06/30 01:11:27;;;;;;;8;7.2;;;;;;;14.61;64.55664;95291.88;;;;
2019/06/30 01:12:28;;;;;;;8.049999;6.85;;;;;;;14.57;65.00586;95290.37;;;;
2019/06/30 01:13:29;;;;;;;8.049999;6.85;;;;;;;14.57;65.00586;95290.37;;;;
2019/06/30 01:14:30;;;;;;;8.049999;6.85;;;;;;;14.57;65.00586;95290.37;;;;
2019/06/30 01:15:31;;;;;;;8.049999;6.85;;;;;;;14.57;65.00586;95290.37;;;;
2019/06/30 01:16:33;;;;;;;8.049999;6.85;;;;;;;14.57;65.00586;95290.37;;;;
2019/06/30 01:17:34;;;;;;;8.049999;6.85;;;;;;;14.57;65.00586;95290.37;;;;
2019/06/30 01:18:35;;;;;;;8.049999;6.85;;;;;;;14.57;65.00586;95290.37;;;;
2019/06/30 01:19:36;;;;;;;8.049999;6.85;;;;;;;14.57;65.00586;95290.37;;;;
2019/06/30 01:20:38;;;;;;;8.049999;6.85;;;;;;;14.57;65.00586;95290.37;;;;
2019/06/30 01:21:39;;;;;;;8.049999;6.85;;;;;;;14.57;65.00586;95290.37;;;;
2019/06/30 01:22:40;;;;;;;8.049999;6.85;;;;;;;14.57;65.00586;95290.37;;;;
2019/06/30 01:23:41;;;;;;;8.050001;7.3;;;;;;;14.46;65.6709;95280.08;;;;
2019/06/30 01:24:42;;;;;;;8.050001;7.3;;;;;;;14.46;65.6709;95280.08;;;;
2019/06/30 01:25:43;;;;;;;8.050001;7.3;;;;;;;14.46;65.6709;95280.08;;;;
2019/06/30 01:26:45;;;;;;;8.050001;7.3;;;;;;;14.46;65.6709;95280.08;;;;
2019/06/30 01:27:46;;;;;;;8.050001;7.3;;;;;;;14.46;65.6709;95280.08;;;;
2019/06/30 01:28:48;;;;;;;8.050001;7.3;;;;;;;14.46;65.6709;95280.08;;;;
2019/06/30 01:29:49;;;;;;;8.050001;7.3;;;;;;;14.46;65.6709;95280.08;;;;
2019/06/30 01:30:50;;;;;;;8.050001;7.3;;;;;;;14.46;65.6709;95280.08;;;;
2019/06/30 01:31:51;;;;;;;8.050001;7.3;;;;;;;14.46;65.6709;95280.08;;;;
2019/06/30 01:32:52;;;;;;;8.050001;7.3;;;;;;;14.46;65.6709;95280.08;;;;
2019/06/30 01:33:53;;;;;;;8.6;7.8;;;;;;;14.4;66.22559;95280.58;;;;
2019/06/30 01:34:54;;;;;;;8.6;7.8;;;;;;;14.4;66.22559;95280.58;;;;
2019/06/30 01:35:56;;;;;;;8.6;7.8;;;;;;;14.4;66.22559;95280.58;;;;
2019/06/30 01:36:57;;;;;;;8.6;7.8;;;;;;;14.4;66.22559;95280.58;;;;
2019/06/30 01:37:58;;;;;;;8.6;7.8;;;;;;;14.4;66.22559;95280.58;;;;
2019/06/30 01:38:59;;;;;;;8.6;7.8;;;;;;;14.4;66.22559;95280.58;;;;
2019/06/30 01:40:00;;;;;;;8.6;7.8;;;;;;;14.4;66.22559;95280.58;;;;
2019/06/30 01:41:02;;;;;;;8.6;7.8;;;;;;;14.4;66.22559;95280.58;;;;
2019/06/30 01:42:04;;;;;;;8.6;7.8;;;;;;;14.4;66.22559;95280.58;;;;
2019/06/30 01:43:05;;;;;;;8.6;7.8;;;;;;;14.4;66.22559;95280.58;;;;
2019/06/30 01:44:07;;;;;;;8.6;7.8;;;;;;;14.4;66.22559;95280.58;;;;
2019/06/30 01:45:08;;;;;;;7.849999;7.15;;;;;;;14.28;66.99707;95268.67;;;;
2019/06/30 01:46:09;;;;;;;7.849999;7.15;;;;;;;14.28;66.99707;95268.67;;;;
2019/06/30 01:47:11;;;;;;;7.849999;7.15;;;;;;;14.28;66.99707;95268.67;;;;
2019/06/30 01:48:12;;;;;;;7.849999;7.15;;;;;;;14.28;66.99707;95268.67;;;;
2019/06/30 01:49:13;;;;;;;7.849999;7.15;;;;;;;14.28;66.99707;95268.67;;;;
2019/06/30 01:50:14;;;;;;;7.849999;7.15;;;;;;;14.28;66.99707;95268.67;;;;
2019/06/30 01:51:16;;;;;;;7.849999;7.15;;;;;;;14.28;66.99707;95268.67;;;;
2019/06/30 01:52:17;;;;;;;7.849999;7.15;;;;;;;14.28;66.99707;95268.67;;;;
2019/06/30 01:53:18;;;;;;;7.849999;7.15;;;;;;;14.28;66.99707;95268.67;;;;
2019/06/30 01:54:19;;;;;;;7.849999;7.15;;;;;;;14.28;66.99707;95268.67;;;;
2019/06/30 01:55:20;;;;;;;8.049999;7.249999;;;;;;;14.23;67.62598;95268.19;;;;
2019/06/30 01:56:21;;;;;;;8.049999;7.249999;;;;;;;14.23;67.62598;95268.19;;;;
2019/06/30 01:57:23;;;;;;;8.049999;7.249999;;;;;;;14.23;67.62598;95268.19;;;;
2019/06/30 01:58:24;;;;;;;8.049999;7.249999;;;;;;;14.23;67.62598;95268.19;;;;
2019/06/30 01:59:25;;;;;;;8.049999;7.249999;;;;;;;14.23;67.62598;95268.19;;;;
2019/06/30 02:00:26;;;;;;;8.049999;7.249999;;;;;;;14.23;67.62598;95268.19;;;;
2019/06/30 02:01:27;;;;;;;8.049999;7.249999;;;;;;;14.23;67.62598;95268.19;;;;
2019/06/30 02:02:28;;;;;;;8.049999;7.249999;;;;;;;14.23;67.62598;95268.19;;;;
2019/06/30 02:03:30;;;;;;;8.049999;7.249999;;;;;;;14.23;67.62598;95268.19;;;;
2019/06/30 02:04:31;;;;;;;8.049999;7.249999;;;;;;;14.23;67.62598;95268.19;;;;
2019/06/30 02:05:32;;;;;;;8.299998;7.5;;;;;;;14.11;68.43066;95266.05;;;;
2019/06/30 02:06:33;;;;;;;8.299998;7.5;;;;;;;14.11;68.43066;95266.05;;;;
2019/06/30 02:07:34;;;;;;;8.299998;7.5;;;;;;;14.11;68.43066;95266.05;;;;
2019/06/30 02:08:36;;;;;;;8.299998;7.5;;;;;;;14.11;68.43066;95266.05;;;;
2019/06/30 02:09:37;;;;;;;8.299998;7.5;;;;;;;14.11;68.43066;95266.05;;;;
2019/06/30 02:10:38;;;;;;;8.299998;7.5;;;;;;;14.11;68.43066;95266.05;;;;
2019/06/30 02:11:39;;;;;;;8.299998;7.5;;;;;;;14.11;68.43066;95266.05;;;;
2019/06/30 02:12:41;;;;;;;8.299998;7.5;;;;;;;14.11;68.43066;95266.05;;;;
2019/06/30 02:13:42;;;;;;;8.299998;7.5;;;;;;;14.11;68.43066;95266.05;;;;
2019/06/30 02:14:43;;;;;;;8.299998;7.5;;;;;;;14.11;68.43066;95266.05;;;;
2019/06/30 02:15:44;;;;;;;8.299998;7.5;;;;;;;14.11;68.43066;95266.05;;;;
2019/06/30 02:16:46;;;;;;;8.349999;7.55;;;;;;;14.04;69.24121;95262.72;;;;
2019/06/30 02:17:47;;;;;;;8.349999;7.55;;;;;;;14.04;69.24121;95262.72;;;;
2019/06/30 02:18:48;;;;;;;8.349999;7.55;;;;;;;14.04;69.24121;95262.72;;;;
2019/06/30 02:19:49;;;;;;;8.349999;7.55;;;;;;;14.04;69.24121;95262.72;;;;
2019/06/30 02:20:50;;;;;;;8.349999;7.55;;;;;;;14.04;69.24121;95262.72;;;;
2019/06/30 02:21:52;;;;;;;8.349999;7.55;;;;;;;14.04;69.24121;95262.72;;;;
2019/06/30 02:22:53;;;;;;;8.349999;7.55;;;;;;;14.04;69.24121;95262.72;;;;
2019/06/30 02:23:54;;;;;;;8.349999;7.55;;;;;;;14.04;69.24121;95262.72;;;;
2019/06/30 02:24:55;;;;;;;8.349999;7.55;;;;;;;14.04;69.24121;95262.72;;;;
2019/06/30 02:25:56;;;;;;;8.349999;7.55;;;;;;;14.04;69.24121;95262.72;;;;
2019/06/30 02:26:58;;;;;;;8.299999;7.5;;;;;;;13.9;69.88867;95269.23;;;;
2019/06/30 02:27:59;;;;;;;8.299999;7.5;;;;;;;13.9;69.88867;95269.23;;;;
2019/06/30 02:29:00;;;;;;;8.299999;7.5;;;;;;;13.9;69.88867;95269.23;;;;
2019/06/30 02:30:01;;;;;;;8.299999;7.5;;;;;;;13.9;69.88867;95269.23;;;;
2019/06/30 02:31:03;;;;;;;8.299999;7.5;;;;;;;13.9;69.88867;95269.23;;;;
2019/06/30 02:32:05;;;;;;;8.299999;7.5;;;;;;;13.9;69.88867;95269.23;;;;
2019/06/30 02:33:06;;;;;;;8.299999;7.5;;;;;;;13.9;69.88867;95269.23;;;;
2019/06/30 02:34:07;;;;;;;8.299999;7.5;;;;;;;13.9;69.88867;95269.23;;;;
2019/06/30 02:35:08;;;;;;;8.299999;7.5;;;;;;;13.9;69.88867;95269.23;;;;
2019/06/30 02:36:11;;;;;;;8.299999;7.5;;;;;;;13.9;69.88867;95269.23;;;;
2019/06/30 02:37:12;;;;;;;8.799999;7.55;;;;;;;13.83;70.62305;95271.34;;;;
2019/06/30 02:38:14;;;;;;;8.799999;7.55;;;;;;;13.83;70.62305;95271.34;;;;
2019/06/30 02:39:15;;;;;;;8.799999;7.55;;;;;;;13.83;70.62305;95271.34;;;;
2019/06/30 02:40:16;;;;;;;8.799999;7.55;;;;;;;13.83;70.62305;95271.34;;;;
2019/06/30 02:41:18;;;;;;;8.799999;7.55;;;;;;;13.83;70.62305;95271.34;;;;
2019/06/30 02:42:19;;;;;;;8.799999;7.55;;;;;;;13.83;70.62305;95271.34;;;;
2019/06/30 02:43:20;;;;;;;8.799999;7.55;;;;;;;13.83;70.62305;95271.34;;;;
2019/06/30 02:44:21;;;;;;;8.799999;7.55;;;;;;;13.83;70.62305;95271.34;;;;
2019/06/30 02:45:22;;;;;;;8.799999;7.55;;;;;;;13.83;70.62305;95271.34;;;;
2019/06/30 02:46:24;;;;;;;8.799999;7.55;;;;;;;13.83;70.62305;95271.34;;;;
2019/06/30 02:47:25;;;;;;;8.799999;7.55;;;;;;;13.83;70.62305;95271.34;;;;
2019/06/30 02:48:26;;;;;;;8.150001;7.400001;;;;;;;13.71;71.30371;95265.64;;;;
2019/06/30 02:49:27;;;;;;;8.150001;7.400001;;;;;;;13.71;71.30371;95265.64;;;;
2019/06/30 02:50:28;;;;;;;8.150001;7.400001;;;;;;;13.71;71.30371;95265.64;;;;
2019/06/30 02:51:29;;;;;;;8.150001;7.400001;;;;;;;13.71;71.30371;95265.64;;;;
2019/06/30 02:52:30;;;;;;;8.150001;7.400001;;;;;;;13.71;71.30371;95265.64;;;;
2019/06/30 02:53:31;;;;;;;8.150001;7.400001;;;;;;;13.71;71.30371;95265.64;;;;
2019/06/30 02:54:32;;;;;;;8.150001;7.400001;;;;;;;13.71;71.30371;95265.64;;;;
2019/06/30 02:55:34;;;;;;;8.150001;7.400001;;;;;;;13.71;71.30371;95265.64;;;;
2019/06/30 02:56:35;;;;;;;8.150001;7.400001;;;;;;;13.71;71.30371;95265.64;;;;
2019/06/30 02:57:36;;;;;;;8.150001;7.400001;;;;;;;13.71;71.30371;95265.64;;;;
2019/06/30 02:58:37;;;;;;;8.099998;7.299999;;;;;;;13.71;72.0918;95264.28;;;;
2019/06/30 02:59:38;;;;;;;8.099998;7.299999;;;;;;;13.71;72.0918;95264.28;;;;
2019/06/30 03:00:39;;;;;;;8.099998;7.299999;;;;;;;13.71;72.0918;95264.28;;;;
2019/06/30 03:01:44;;;;;;;8.099998;7.299999;;;;;;;13.71;72.0918;95264.28;;;;
2019/06/30 03:02:45;;;;;;;8.099998;7.299999;;;;;;;13.71;72.0918;95264.28;;;;
2019/06/30 03:03:46;;;;;;;8.099998;7.299999;;;;;;;13.71;72.0918;95264.28;;;;
2019/06/30 03:04:47;;;;;;;8.099998;7.299999;;;;;;;13.71;72.0918;95264.28;;;;
2019/06/30 03:05:48;;;;;;;8.099998;7.299999;;;;;;;13.71;72.0918;95264.28;;;;
2019/06/30 03:06:49;;;;;;;8.099998;7.299999;;;;;;;13.71;72.0918;95264.28;;;;
2019/06/30 03:07:51;;;;;;;8.099998;7.299999;;;;;;;13.71;72.0918;95264.28;;;;
2019/06/30 03:08:52;;;;;;;8.099998;7.299999;;;;;;;13.71;72.0918;95264.28;;;;
2019/06/30 03:09:53;;;;;;;8.349998;7.55;;;;;;;13.69;72.69238;95266.05;;;;
2019/06/30 03:10:54;;;;;;;8.349998;7.55;;;;;;;13.69;72.69238;95266.05;;;;
2019/06/30 03:11:55;;;;;;;8.349998;7.55;;;;;;;13.69;72.69238;95266.05;;;;
2019/06/30 03:12:56;;;;;;;8.349998;7.55;;;;;;;13.69;72.69238;95266.05;;;;
2019/06/30 03:13:57;;;;;;;8.349998;7.55;;;;;;;13.69;72.69238;95266.05;;;;
2019/06/30 03:14:58;;;;;;;8.349998;7.55;;;;;;;13.69;72.69238;95266.05;;;;
2019/06/30 03:15:59;;;;;;;8.349998;7.55;;;;;;;13.69;72.69238;95266.05;;;;
2019/06/30 03:17:00;;;;;;;8.349998;7.55;;;;;;;13.69;72.69238;95266.05;;;;
2019/06/30 03:18:02;;;;;;;8.349998;7.55;;;;;;;13.69;72.69238;95266.05;;;;
2019/06/30 03:19:03;;;;;;;8.349998;7.55;;;;;;;13.69;72.69238;95266.05;;;;
2019/06/30 03:20:04;;;;;;;8.599999;7.650001;;;;;;;13.74;73.29297;95268.25;;;;
2019/06/30 03:21:06;;;;;;;8.599999;7.650001;;;;;;;13.74;73.29297;95268.25;;;;
2019/06/30 03:22:07;;;;;;;8.599999;7.650001;;;;;;;13.74;73.29297;95268.25;;;;
2019/06/30 03:23:08;;;;;;;8.599999;7.650001;;;;;;;13.74;73.29297;95268.25;;;;
2019/06/30 03:24:09;;;;;;;8.599999;7.650001;;;;;;;13.74;73.29297;95268.25;;;;
2019/06/30 03:25:10;;;;;;;8.599999;7.650001;;;;;;;13.74;73.29297;95268.25;;;;
2019/06/30 03:26:12;;;;;;;8.599999;7.650001;;;;;;;13.74;73.29297;95268.25;;;;
2019/06/30 03:27:13;;;;;;;8.599999;7.650001;;;;;;;13.74;73.29297;95268.25;;;;
2019/06/30 03:28:14;;;;;;;8.599999;7.650001;;;;;;;13.74;73.29297;95268.25;;;;
2019/06/30 03:29:15;;;;;;;8.599999;7.650001;;;;;;;13.74;73.29297;95268.25;;;;
2019/06/30 03:30:16;;;;;;;9.049999;7.950001;;;;;;;13.75;73.69336;95272.62;;;;
2019/06/30 03:31:17;;;;;;;9.049999;7.950001;;;;;;;13.75;73.69336;95272.62;;;;
2019/06/30 03:32:18;;;;;;;9.049999;7.950001;;;;;;;13.75;73.69336;95272.62;;;;
2019/06/30 03:33:19;;;;;;;9.049999;7.950001;;;;;;;13.75;73.69336;95272.62;;;;
2019/06/30 03:34:20;;;;;;;9.049999;7.950001;;;;;;;13.75;73.69336;95272.62;;;;
2019/06/30 03:35:21;;;;;;;9.049999;7.950001;;;;;;;13.75;73.69336;95272.62;;;;
2019/06/30 03:36:23;;;;;;;9.049999;7.950001;;;;;;;13.75;73.69336;95272.62;;;;
2019/06/30 03:37:24;;;;;;;9.049999;7.950001;;;;;;;13.75;73.69336;95272.62;;;;
2019/06/30 03:38:25;;;;;;;9.049999;7.950001;;;;;;;13.75;73.69336;95272.62;;;;
2019/06/30 03:39:26;;;;;;;9.049999;7.950001;;;;;;;13.75;73.69336;95272.62;;;;
2019/06/30 03:40:27;;;;;;;9.049999;7.950001;;;;;;;13.75;73.69336;95272.62;;;;
2019/06/30 03:41:28;;;;;;;8.6;7.7;;;;;;;13.86;73.93945;95277.08;;;;
2019/06/30 03:42:29;;;;;;;8.6;7.7;;;;;;;13.86;73.93945;95277.08;;;;
2019/06/30 03:43:30;;;;;;;8.6;7.7;;;;;;;13.86;73.93945;95277.08;;;;
2019/06/30 03:44:31;;;;;;;8.6;7.7;;;;;;;13.86;73.93945;95277.08;;;;
2019/06/30 03:45:32;;;;;;;8.6;7.7;;;;;;;13.86;73.93945;95277.08;;;;
2019/06/30 03:46:34;;;;;;;8.6;7.7;;;;;;;13.86;73.93945;95277.08;;;;
2019/06/30 03:47:35;;;;;;;8.6;7.7;;;;;;;13.86;73.93945;95277.08;;;;
2019/06/30 03:48:36;;;;;;;8.6;7.7;;;;;;;13.86;73.93945;95277.08;;;;
2019/06/30 03:49:37;;;;;;;8.6;7.7;;;;;;;13.86;73.93945;95277.08;;;;
2019/06/30 03:50:38;;;;;;;8.6;7.7;;;;;;;13.86;73.93945;95277.08;;;;
2019/06/30 03:51:39;;;;;;;9.1;7.449999;;;;;;;13.94;74.0166;95288.01;;;;
2019/06/30 03:52:40;;;;;;;9.1;7.449999;;;;;;;13.94;74.0166;95288.01;;;;
2019/06/30 03:53:41;;;;;;;9.1;7.449999;;;;;;;13.94;74.0166;95288.01;;;;
2019/06/30 03:54:42;;;;;;;9.1;7.449999;;;;;;;13.94;74.0166;95288.01;;;;
2019/06/30 03:55:43;;;;;;;9.1;7.449999;;;;;;;13.94;74.0166;95288.01;;;;
2019/06/30 03:56:44;;;;;;;9.1;7.449999;;;;;;;13.94;74.0166;95288.01;;;;
2019/06/30 03:57:45;;;;;;;9.1;7.449999;;;;;;;13.94;74.0166;95288.01;;;;
2019/06/30 03:58:46;;;;;;;9.1;7.449999;;;;;;;13.94;74.0166;95288.01;;;;
2019/06/30 03:59:48;;;;;;;9.1;7.449999;;;;;;;13.94;74.0166;95288.01;;;;
2019/06/30 04:00:49;;;;;;;9.1;7.449999;;;;;;;13.94;74.0166;95288.01;;;;
2019/06/30 04:01:50;;;;;;;9.1;7.449999;;;;;;;13.94;74.0166;95288.01;;;;
2019/06/30 04:02:51;;;;;;;8.5;7.600001;;;;;;;14.12;74.20801;95283.58;;;;
2019/06/30 04:03:52;;;;;;;8.5;7.600001;;;;;;;14.12;74.20801;95283.58;;;;
2019/06/30 04:04:53;;;;;;;8.5;7.600001;;;;;;;14.12;74.20801;95283.58;;;;
2019/06/30 04:05:54;;;;;;;8.5;7.600001;;;;;;;14.12;74.20801;95283.58;;;;
2019/06/30 04:06:55;;;;;;;8.5;7.600001;;;;;;;14.12;74.20801;95283.58;;;;
2019/06/30 04:07:56;;;;;;;8.5;7.600001;;;;;;;14.12;74.20801;95283.58;;;;
2019/06/30 04:08:57;;;;;;;8.5;7.600001;;;;;;;14.12;74.20801;95283.58;;;;
2019/06/30 04:09:59;;;;;;;8.5;7.600001;;;;;;;14.12;74.20801;95283.58;;;;
2019/06/30 04:11:00;;;;;;;8.5;7.600001;;;;;;;14.12;74.20801;95283.58;;;;
2019/06/30 04:12:01;;;;;;;8.5;7.600001;;;;;;;14.12;74.20801;95283.58;;;;
2019/06/30 04:13:02;;;;;;;8.150001;7.45;;;;;;;14.27;74.25586;95295.12;;;;
2019/06/30 04:14:03;;;;;;;8.150001;7.45;;;;;;;14.27;74.25586;95295.12;;;;
2019/06/30 04:15:04;;;;;;;8.150001;7.45;;;;;;;14.27;74.25586;95295.12;;;;
2019/06/30 04:16:06;;;;;;;8.150001;7.45;;;;;;;14.27;74.25586;95295.12;;;;
2019/06/30 04:17:07;;;;;;;8.150001;7.45;;;;;;;14.27;74.25586;95295.12;;;;
2019/06/30 04:18:08;;;;;;;8.150001;7.45;;;;;;;14.27;74.25586;95295.12;;;;
2019/06/30 04:19:09;;;;;;;8.150001;7.45;;;;;;;14.27;74.25586;95295.12;;;;
2019/06/30 04:20:10;;;;;;;8.150001;7.45;;;;;;;14.27;74.25586;95295.12;;;;
2019/06/30 04:21:12;;;;;;;8.150001;7.45;;;;;;;14.27;74.25586;95295.12;;;;
2019/06/30 04:22:13;;;;;;;8.150001;7.45;;;;;;;14.27;74.25586;95295.12;;;;
2019/06/30 04:23:14;;;;;;;9.249998;8.150002;;;;;;;14.48;74.27051;95292.31;;;;
2019/06/30 04:24:15;;;;;;;9.249998;8.150002;;;;;;;14.48;74.27051;95292.31;;;;
2019/06/30 04:25:16;;;;;;;9.249998;8.150002;;;;;;;14.48;74.27051;95292.31;;;;
2019/06/30 04:26:17;;;;;;;9.249998;8.150002;;;;;;;14.48;74.27051;95292.31;;;;
2019/06/30 04:27:18;;;;;;;9.249998;8.150002;;;;;;;14.48;74.27051;95292.31;;;;
2019/06/30 04:28:20;;;;;;;9.249998;8.150002;;;;;;;14.48;74.27051;95292.31;;;;
2019/06/30 04:29:21;;;;;;;9.249998;8.150002;;;;;;;14.48;74.27051;95292.31;;;;
2019/06/30 04:30:22;;;;;;;9.249998;8.150002;;;;;;;14.48;74.27051;95292.31;;;;
2019/06/30 04:31:23;;;;;;;9.249998;8.150002;;;;;;;14.48;74.27051;95292.31;;;;
2019/06/30 04:32:24;;;;;;;9.249998;8.150002;;;;;;;14.48;74.27051;95292.31;;;;
2019/06/30 04:33:25;;;;;;;9.249998;8.150002;;;;;;;14.48;74.27051;95292.31;;;;
2019/06/30 04:34:26;;;;;;;8.5;7.55;;;;;;;14.68;74.41211;95303.34;;;;
2019/06/30 04:35:27;;;;;;;8.5;7.55;;;;;;;14.68;74.41211;95303.34;;;;
2019/06/30 04:36:28;;;;;;;8.5;7.55;;;;;;;14.68;74.41211;95303.34;;;;
2019/06/30 04:37:29;;;;;;;8.5;7.55;;;;;;;14.68;74.41211;95303.34;;;;
2019/06/30 04:38:31;;;;;;;8.5;7.55;;;;;;;14.68;74.41211;95303.34;;;;
2019/06/30 04:39:32;;;;;;;8.5;7.55;;;;;;;14.68;74.41211;95303.34;;;;
2019/06/30 04:40:33;;;;;;;8.5;7.55;;;;;;;14.68;74.41211;95303.34;;;;
2019/06/30 04:41:34;;;;;;;8.5;7.55;;;;;;;14.68;74.41211;95303.34;;;;
2019/06/30 04:42:35;;;;;;;8.5;7.55;;;;;;;14.68;74.41211;95303.34;;;;
2019/06/30 04:43:36;;;;;;;8.5;7.55;;;;;;;14.68;74.41211;95303.34;;;;
2019/06/30 04:44:37;;;;;;;9;7.449999;;;;;;;15.02;74.47852;95303.87;;;;
2019/06/30 04:45:38;;;;;;;9;7.449999;;;;;;;15.02;74.47852;95303.87;;;;
2019/06/30 04:46:39;;;;;;;9;7.449999;;;;;;;15.02;74.47852;95303.87;;;;
2019/06/30 04:47:40;;;;;;;9;7.449999;;;;;;;15.02;74.47852;95303.87;;;;
2019/06/30 04:48:41;;;;;;;9;7.449999;;;;;;;15.02;74.47852;95303.87;;;;
2019/06/30 04:49:43;;;;;;;9;7.449999;;;;;;;15.02;74.47852;95303.87;;;;
2019/06/30 04:50:44;;;;;;;9;7.449999;;;;;;;15.02;74.47852;95303.87;;;;
2019/06/30 04:51:45;;;;;;;9;7.449999;;;;;;;15.02;74.47852;95303.87;;;;
2019/06/30 04:52:46;;;;;;;9;7.449999;;;;;;;15.02;74.47852;95303.87;;;;
2019/06/30 04:53:47;;;;;;;9;7.449999;;;;;;;15.02;74.47852;95303.87;;;;
2019/06/30 04:54:48;;;;;;;9;7.449999;;;;;;;15.02;74.47852;95303.87;;;;
2019/06/30 04:55:49;;;;;;;8.200001;7.4;;;;;;;15.41;74.41504;95306.14;;;;
2019/06/30 04:56:50;;;;;;;8.200001;7.4;;;;;;;15.41;74.41504;95306.14;;;;
2019/06/30 04:57:51;;;;;;;8.200001;7.4;;;;;;;15.41;74.41504;95306.14;;;;
2019/06/30 04:58:52;;;;;;;8.200001;7.4;;;;;;;15.41;74.41504;95306.14;;;;
2019/06/30 04:59:53;;;;;;;8.200001;7.4;;;;;;;15.41;74.41504;95306.14;;;;
2019/06/30 05:00:54;;;;;;;8.200001;7.4;;;;;;;15.41;74.41504;95306.14;;;;
2019/06/30 05:01:56;;;;;;;8.200001;7.4;;;;;;;15.41;74.41504;95306.14;;;;
2019/06/30 05:02:57;;;;;;;8.200001;7.4;;;;;;;15.41;74.41504;95306.14;;;;
2019/06/30 05:03:58;;;;;;;8.200001;7.4;;;;;;;15.41;74.41504;95306.14;;;;
2019/06/30 05:04:59;;;;;;;8.200001;7.4;;;;;;;15.41;74.41504;95306.14;;;;
2019/06/30 05:06:00;;;;;;;7.799999;7.1;;;;;;;16.04;74.26172;95306.36;;;;
2019/06/30 05:07:01;;;;;;;7.799999;7.1;;;;;;;16.04;74.26172;95306.36;;;;
2019/06/30 05:08:02;;;;;;;7.799999;7.1;;;;;;;16.04;74.26172;95306.36;;;;
2019/06/30 05:09:03;;;;;;;7.799999;7.1;;;;;;;16.04;74.26172;95306.36;;;;
2019/06/30 05:10:05;;;;;;;7.799999;7.1;;;;;;;16.04;74.26172;95306.36;;;;
2019/06/30 05:11:06;;;;;;;7.799999;7.1;;;;;;;16.04;74.26172;95306.36;;;;
2019/06/30 05:12:07;;;;;;;7.799999;7.1;;;;;;;16.04;74.26172;95306.36;;;;
2019/06/30 05:13:08;;;;;;;7.799999;7.1;;;;;;;16.04;74.26172;95306.36;;;;
2019/06/30 05:14:09;;;;;;;7.799999;7.1;;;;;;;16.04;74.26172;95306.36;;;;
2019/06/30 05:15:10;;;;;;;7.799999;7.1;;;;;;;16.04;74.26172;95306.36;;;;
2019/06/30 05:16:13;;;;;;;7.150001;6.500001;;;;;;;16.71;73.83105;95321.02;;;;
2019/06/30 05:17:14;;;;;;;7.150001;6.500001;;;;;;;16.71;73.83105;95321.02;;;;
2019/06/30 05:18:15;;;;;;;7.150001;6.500001;;;;;;;16.71;73.83105;95321.02;;;;
2019/06/30 05:19:16;;;;;;;7.150001;6.500001;;;;;;;16.71;73.83105;95321.02;;;;
2019/06/30 05:20:17;;;;;;;7.150001;6.500001;;;;;;;16.71;73.83105;95321.02;;;;
2019/06/30 05:21:18;;;;;;;7.150001;6.500001;;;;;;;16.71;73.83105;95321.02;;;;
2019/06/30 05:22:19;;;;;;;7.150001;6.500001;;;;;;;16.71;73.83105;95321.02;;;;
2019/06/30 05:23:21;;;;;;;7.150001;6.500001;;;;;;;16.71;73.83105;95321.02;;;;
2019/06/30 05:24:22;;;;;;;7.150001;6.500001;;;;;;;16.71;73.83105;95321.02;;;;
2019/06/30 05:25:23;;;;;;;7.150001;6.500001;;;;;;;16.71;73.83105;95321.02;;;;
2019/06/30 05:26:24;;;;;;;7.150001;6.500001;;;;;;;16.71;73.83105;95321.02;;;;
2019/06/30 05:27:25;;;;;;;6.649999;5.95;;;;;;;17.57;73.21289;95328.58;;;;
2019/06/30 05:28:26;;;;;;;6.649999;5.95;;;;;;;17.57;73.21289;95328.58;;;;